Time;durP1;ratioP1;P1;durP2;ratioP2;P2;SDS_P1;SDS_P2;PMS_P1;PMS_P2;Temp;Humidity;BMP_temperature;BMP_pressure;BME280_temperature;BME280_humidity;BME280_pressure;Samples;Min_cycle;Max_cycle;Signal;HPM_P1;HPM_P2
2021/04/27 00:00:58;;;;;;;3.65;2.65;;;6.50;75.60;;;;;;5093069;28;20194;-71
2021/04/27 00:03:33;;;;;;;4.07;1.52;;;6.50;75.80;;;;;;5094198;28;20229;-70
2021/04/27 00:06:00;;;;;;;1.70;1.33;;;6.50;76.20;;;;;;5096076;28;20200;-69
2021/04/27 00:08:39;;;;;;;3.08;1.60;;;6.50;76.40;;;;;;5105272;28;20206;-69
2021/04/27 00:11:05;;;;;;;7.30;1.60;;;6.40;76.70;;;;;;5094042;28;20214;-69
2021/04/27 00:13:32;;;;;;;2.75;1.15;;;6.40;76.90;;;;;;5087670;28;20749;-69
2021/04/27 00:16:01;;;;;;;2.35;1.30;;;6.40;77.90;;;;;;5100250;28;20199;-71
2021/04/27 00:18:29;;;;;;;9.57;1.67;;;6.30;77.40;;;;;;5096413;28;20281;-69
2021/04/27 00:20:55;;;;;;;1.55;1.25;;;6.30;77.60;;;;;;5093253;28;20214;-70
2021/04/27 00:23:23;;;;;;;4.60;1.45;;;6.20;78.00;;;;;;5100359;28;20263;-70
2021/04/27 00:25:49;;;;;;;1.83;1.55;;;6.20;78.10;;;;;;5104728;28;20205;-70
2021/04/27 00:28:16;;;;;;;3.30;1.98;;;6.10;78.20;;;;;;5092612;28;20206;-70
2021/04/27 00:30:43;;;;;;;1.80;1.23;;;6.00;78.90;;;;;;5093262;28;20215;-70
2021/04/27 00:33:11;;;;;;;1.80;1.38;;;6.00;79.10;;;;;;5087110;28;20222;-70
2021/04/27 00:35:38;;;;;;;4.30;1.77;;;6.00;79.10;;;;;;5098780;28;20207;-69
2021/04/27 00:38:05;;;;;;;1.63;1.48;;;6.00;79.30;;;;;;5088493;28;20232;-69
2021/04/27 00:40:32;;;;;;;1.75;1.65;;;6.00;79.60;;;;;;5087460;28;20202;-70
2021/04/27 00:42:59;;;;;;;4.13;1.45;;;5.90;79.80;;;;;;5098200;28;20205;-70
2021/04/27 00:45:29;;;;;;;2.20;1.40;;;5.90;79.80;;;;;;5093540;28;20205;-69
2021/04/27 00:47:56;;;;;;;1.52;1.35;;;5.80;80.10;;;;;;5088728;28;20211;-70
2021/04/27 00:50:27;;;;;;;4.72;1.58;;;5.80;80.20;;;;;;5100228;28;20198;-70
2021/04/27 00:52:54;;;;;;;3.08;1.52;;;5.80;80.30;;;;;;5092699;28;20202;-70
2021/04/27 00:55:22;;;;;;;3.33;1.55;;;5.70;80.60;;;;;;5084878;28;20198;-69
2021/04/27 00:57:49;;;;;;;3.55;2.15;;;5.70;80.90;;;;;;5092815;28;20249;-70
2021/04/27 01:00:19;;;;;;;2.63;1.73;;;5.60;80.90;;;;;;5084209;28;20279;-70
2021/04/27 01:03:02;;;;;;;2.10;1.20;;;5.60;81.10;;;;;;5097168;28;20251;-70
2021/04/27 01:05:32;;;;;;;3.42;1.65;;;5.50;81.50;;;;;;5091367;28;20202;-69
2021/04/27 01:08:05;;;;;;;5.45;1.90;;;5.50;81.70;;;;;;5094317;28;20209;-70
2021/04/27 01:10:42;;;;;;;2.00;1.80;;;5.40;81.70;;;;;;5100340;28;20201;-69
2021/04/27 01:13:17;;;;;;;5.03;1.20;;;5.40;82.00;;;;;;5086723;28;20225;-69
2021/04/27 01:15:44;;;;;;;1.90;1.40;;;5.40;82.20;;;;;;5100567;28;20200;-69
2021/04/27 01:18:13;;;;;;;2.22;1.65;;;5.40;82.40;;;;;;5102937;28;20251;-69
2021/04/27 01:20:43;;;;;;;1.70;1.55;;;5.40;82.50;;;;;;5108475;28;20704;-69
2021/04/27 01:23:25;;;;;;;2.72;1.85;;;5.40;82.60;;;;;;5092054;28;20204;-69
2021/04/27 01:26:02;;;;;;;2.45;1.17;;;5.40;82.90;;;;;;5091419;28;20202;-70
2021/04/27 01:28:30;;;;;;;2.22;1.50;;;5.40;82.80;;;;;;5102910;28;20261;-69
2021/04/27 01:30:58;;;;;;;2.40;1.77;;;5.40;82.90;;;;;;5094949;28;20206;-69
2021/04/27 01:33:28;;;;;;;2.40;1.30;;;5.40;83.00;;;;;;5091637;28;20229;-70
2021/04/27 01:35:56;;;;;;;3.15;1.77;;;5.40;82.90;;;;;;5086659;28;20207;-70
2021/04/27 01:38:23;;;;;;;2.15;1.77;;;5.30;83.10;;;;;;5097786;28;20204;-70
2021/04/27 01:40:52;;;;;;;6.75;1.92;;;5.20;83.50;;;;;;5095132;28;20202;-71
2021/04/27 01:43:19;;;;;;;2.38;1.42;;;5.30;83.90;;;;;;5091750;28;20222;-69
2021/04/27 01:45:48;;;;;;;6.20;2.05;;;5.20;84.30;;;;;;5092388;28;20220;-69
2021/04/27 01:48:15;;;;;;;4.50;1.75;;;5.20;84.10;;;;;;5089770;28;20202;-70
2021/04/27 01:50:43;;;;;;;2.75;1.50;;;5.10;84.20;;;;;;5091944;28;20637;-70
2021/04/27 01:53:12;;;;;;;2.45;1.77;;;5.10;84.50;;;;;;5090836;28;20241;-70
2021/04/27 01:55:39;;;;;;;2.03;1.40;;;5.10;84.60;;;;;;5097440;28;20212;-70
2021/04/27 01:58:05;;;;;;;1.90;1.15;;;5.10;84.80;;;;;;5100314;28;20210;-70
2021/04/27 02:00:45;;;;;;;3.13;1.80;;;5.00;84.90;;;;;;5094969;28;20198;-70
2021/04/27 02:03:13;;;;;;;1.95;1.50;;;5.00;85.30;;;;;;5091898;28;20194;-70
2021/04/27 02:05:47;;;;;;;2.70;1.63;;;4.90;85.30;;;;;;5090431;28;20217;-69
2021/04/27 02:08:13;;;;;;;1.90;1.38;;;4.90;86.00;;;;;;5096528;28;20248;-70
2021/04/27 02:10:40;;;;;;;1.48;1.30;;;4.90;85.60;;;;;;5102399;28;20682;-70
2021/04/27 02:13:12;;;;;;;3.00;1.75;;;4.90;85.80;;;;;;5093403;28;20217;-70
2021/04/27 02:15:40;;;;;;;5.78;1.65;;;4.90;86.00;;;;;;5091859;28;20542;-69
2021/04/27 02:18:16;;;;;;;1.85;1.20;;;4.90;86.10;;;;;;5089778;28;20211;-70
2021/04/27 02:20:43;;;;;;;2.75;1.40;;;4.90;86.20;;;;;;5082024;28;20298;-70
2021/04/27 02:23:17;;;;;;;3.28;1.85;;;4.80;86.50;;;;;;5099277;28;20686;-70
2021/04/27 02:25:46;;;;;;;3.35;1.70;;;4.70;86.80;;;;;;5097409;28;20209;-70
2021/04/27 02:28:13;;;;;;;3.67;1.65;;;4.60;87.30;;;;;;5102673;28;20213;-70
2021/04/27 02:30:40;;;;;;;2.03;1.73;;;4.60;87.90;;;;;;5096728;28;20193;-70
2021/04/27 02:33:09;;;;;;;3.75;1.80;;;4.70;87.80;;;;;;5103866;28;20226;-70
2021/04/27 02:35:37;;;;;;;1.95;1.70;;;4.80;87.50;;;;;;5097253;28;20220;-70
2021/04/27 02:38:03;;;;;;;3.75;1.83;;;4.70;87.40;;;;;;5091231;28;20194;-70
2021/04/27 02:40:30;;;;;;;3.90;2.00;;;4.70;87.70;;;;;;5102491;28;20288;-70
2021/04/27 02:42:59;;;;;;;5.35;1.80;;;4.70;87.70;;;;;;5098182;28;20203;-70
2021/04/27 02:45:31;;;;;;;2.83;2.53;;;4.70;87.80;;;;;;5093548;28;20202;-70
2021/04/27 02:48:07;;;;;;;3.33;1.67;;;4.60;88.00;;;;;;5089867;28;20723;-70
2021/04/27 02:50:34;;;;;;;2.17;1.55;;;4.50;88.40;;;;;;5088804;28;20201;-70
2021/04/27 02:53:01;;;;;;;2.40;1.60;;;4.50;88.60;;;;;;5090736;28;20242;-70
2021/04/27 02:55:28;;;;;;;1.77;1.38;;;4.50;88.70;;;;;;5090782;28;20199;-70
2021/04/27 02:58:01;;;;;;;3.55;1.77;;;4.50;89.00;;;;;;5080053;28;20199;-70
2021/04/27 03:00:27;;;;;;;3.20;2.20;;;4.40;88.90;;;;;;5095918;28;20661;-70
2021/04/27 03:02:55;;;;;;;2.47;1.95;;;4.50;89.40;;;;;;5097274;28;20284;-71
2021/04/27 03:05:22;;;;;;;2.08;1.45;;;4.50;89.40;;;;;;5093767;28;20222;-71
2021/04/27 03:07:49;;;;;;;2.88;1.60;;;4.50;89.50;;;;;;5090849;28;20210;-70
2021/04/27 03:10:17;;;;;;;2.85;1.35;;;4.50;89.40;;;;;;5096480;28;20676;-70
2021/04/27 03:12:54;;;;;;;3.63;1.92;;;4.50;89.60;;;;;;5093224;28;20211;-70
2021/04/27 03:15:21;;;;;;;2.70;2.10;;;4.50;89.60;;;;;;5093391;28;20244;-70
2021/04/27 03:17:57;;;;;;;2.65;2.05;;;4.50;89.60;;;;;;5092586;28;20289;-70
2021/04/27 03:20:23;;;;;;;5.15;1.70;;;4.40;89.80;;;;;;5091413;28;20640;-71
2021/04/27 03:22:50;;;;;;;4.13;1.65;;;4.30;90.10;;;;;;5099637;28;20566;-70
2021/04/27 03:25:18;;;;;;;3.28;1.95;;;4.40;90.20;;;;;;5097517;28;20224;-69
2021/04/27 03:27:44;;;;;;;2.90;1.90;;;4.40;90.20;;;;;;5109863;28;20212;-70
2021/04/27 03:30:13;;;;;;;2.65;1.83;;;4.40;90.30;;;;;;5102156;28;20202;-70
2021/04/27 03:32:41;;;;;;;3.55;1.83;;;4.40;90.20;;;;;;5098473;28;20225;-69
2021/04/27 03:35:10;;;;;;;10.38;2.08;;;4.40;90.20;;;;;;5095648;28;20665;-70
2021/04/27 03:37:37;;;;;;;1.77;1.52;;;4.40;90.30;;;;;;5106024;28;20346;-70
2021/04/27 03:40:06;;;;;;;1.88;1.50;;;4.40;90.40;;;;;;5107714;28;20223;-70
2021/04/27 03:42:34;;;;;;;3.15;2.75;;;4.40;90.40;;;;;;5094101;28;20199;-70
2021/04/27 03:45:01;;;;;;;1.80;1.50;;;4.40;90.50;;;;;;5097495;28;20238;-70
2021/04/27 03:47:28;;;;;;;2.67;1.63;;;4.40;90.60;;;;;;5099865;28;20206;-69
2021/04/27 03:49:55;;;;;;;2.80;1.77;;;4.40;90.60;;;;;;5106302;28;20209;-70
2021/04/27 03:52:21;;;;;;;3.92;2.10;;;4.40;90.70;;;;;;5096576;28;20234;-70
2021/04/27 03:54:48;;;;;;;3.33;1.80;;;4.40;91.10;;;;;;5094744;28;20275;-70
2021/04/27 03:57:15;;;;;;;5.10;1.77;;;4.30;91.00;;;;;;5109166;28;20208;-70
2021/04/27 03:59:42;;;;;;;1.30;1.20;;;4.30;91.10;;;;;;5095769;28;20220;-69
2021/04/27 04:02:09;;;;;;;3.28;1.75;;;4.30;91.30;;;;;;5108424;28;20210;-69
2021/04/27 04:04:36;;;;;;;6.30;2.00;;;4.30;91.50;;;;;;5094696;28;20630;-70
2021/04/27 04:07:02;;;;;;;2.50;1.80;;;4.20;91.70;;;;;;5093193;28;20281;-69
2021/04/27 04:09:29;;;;;;;4.63;2.75;;;4.30;91.70;;;;;;5092851;28;20206;-68
2021/04/27 04:11:56;;;;;;;3.67;1.92;;;4.30;91.70;;;;;;5093247;28;20194;-71
2021/04/27 04:14:22;;;;;;;4.32;2.30;;;4.30;91.70;;;;;;5093459;28;20218;-68
2021/04/27 04:16:50;;;;;;;2.08;1.85;;;4.30;92.10;;;;;;5093739;28;20622;-69
2021/04/27 04:19:17;;;;;;;5.70;2.17;;;4.40;92.00;;;;;;5092770;28;20209;-69
2021/04/27 04:21:44;;;;;;;5.50;2.08;;;4.40;91.70;;;;;;5093751;28;20216;-69
2021/04/27 04:24:11;;;;;;;2.67;1.90;;;4.40;91.80;;;;;;5091878;28;20714;-68
2021/04/27 04:26:38;;;;;;;4.45;2.22;;;4.40;91.90;;;;;;5093514;28;20671;-69
2021/04/27 04:29:05;;;;;;;3.08;1.95;;;4.40;91.70;;;;;;5102500;28;20198;-69
2021/04/27 04:31:32;;;;;;;1.92;1.67;;;4.40;91.90;;;;;;5102135;28;20201;-68
2021/04/27 04:33:59;;;;;;;4.43;2.05;;;4.50;91.80;;;;;;5096826;28;20259;-70
2021/04/27 04:36:26;;;;;;;4.30;2.45;;;4.50;91.70;;;;;;5085698;28;20212;-70
2021/04/27 04:38:53;;;;;;;3.88;1.75;;;4.70;91.40;;;;;;5094589;28;20222;-70
2021/04/27 04:41:19;;;;;;;7.78;3.00;;;4.80;91.20;;;;;;5092407;28;20204;-69
2021/04/27 04:43:46;;;;;;;5.03;1.75;;;4.90;90.90;;;;;;5092673;28;20228;-68
2021/04/27 04:46:13;;;;;;;2.88;1.70;;;5.00;90.70;;;;;;5091740;28;20602;-69
2021/04/27 04:48:40;;;;;;;2.45;1.58;;;5.10;90.50;;;;;;5094889;28;20555;-70
2021/04/27 04:51:07;;;;;;;2.28;1.30;;;5.30;90.00;;;;;;5095596;28;20571;-69
2021/04/27 04:53:34;;;;;;;4.07;2.10;;;5.40;89.40;;;;;;5090367;28;20222;-70
2021/04/27 04:56:01;;;;;;;6.38;2.08;;;5.60;88.50;;;;;;5097191;28;20553;-69
2021/04/27 04:58:28;;;;;;;3.30;2.30;;;5.80;87.50;;;;;;5088136;28;20209;-69
2021/04/27 05:00:54;;;;;;;2.95;1.77;;;6.10;86.80;;;;;;5105101;28;20210;-69
2021/04/27 05:03:21;;;;;;;2.58;2.17;;;6.40;85.40;;;;;;5098164;28;20210;-70
2021/04/27 05:05:47;;;;;;;3.55;2.20;;;7.20;84.50;;;;;;5092481;28;20591;-69
2021/04/27 05:08:21;;;;;;;3.70;1.92;;;8.20;80.70;;;;;;5086807;28;20263;-71
2021/04/27 05:10:48;;;;;;;2.30;2.00;;;9.20;77.30;;;;;;5097426;28;20232;-71
2021/04/27 05:13:15;;;;;;;2.47;1.70;;;10.30;72.60;;;;;;5105023;28;20284;-71
2021/04/27 05:15:42;;;;;;;7.07;1.80;;;11.00;68.90;;;;;;5091459;28;20240;-71
2021/04/27 05:18:09;;;;;;;6.53;1.95;;;11.40;66.90;;;;;;5099756;28;20248;-71
2021/04/27 05:20:36;;;;;;;2.83;1.83;;;11.90;65.00;;;;;;5091428;28;20207;-70
2021/04/27 05:23:04;;;;;;;7.25;2.05;;;12.10;63.30;;;;;;5102606;28;20201;-71
2021/04/27 05:25:32;;;;;;;7.97;2.30;;;12.40;61.70;;;;;;5095617;28;20208;-69
2021/04/27 05:27:59;;;;;;;3.53;1.92;;;12.50;60.80;;;;;;5089839;28;20210;-70
2021/04/27 05:30:26;;;;;;;6.07;2.35;;;12.40;59.80;;;;;;5100265;28;20201;-71
2021/04/27 05:32:53;;;;;;;5.93;2.50;;;11.90;60.40;;;;;;5085747;28;20220;-70
2021/04/27 05:35:22;;;;;;;4.15;1.80;;;11.70;61.10;;;;;;5086995;28;20201;-69
2021/04/27 05:37:49;;;;;;;3.53;1.98;;;11.60;61.10;;;;;;5094406;28;20210;-70
2021/04/27 05:40:16;;;;;;;5.00;2.30;;;11.50;61.40;;;;;;5090365;28;20212;-71
2021/04/27 05:42:43;;;;;;;3.03;1.92;;;11.80;61.60;;;;;;5089768;28;20220;-70
2021/04/27 05:45:11;;;;;;;3.55;2.58;;;12.30;60.20;;;;;;5085364;28;20222;-69
2021/04/27 05:47:47;;;;;;;2.90;1.85;;;12.70;59.50;;;;;;5097997;28;20201;-70
2021/04/27 05:50:14;;;;;;;4.57;2.25;;;13.60;58.50;;;;;;5103709;28;20225;-71
2021/04/27 05:52:41;;;;;;;3.10;2.00;;;14.30;56.90;;;;;;5100468;28;20239;-72
2021/04/27 05:55:08;;;;;;;6.28;2.17;;;14.70;55.30;;;;;;5093065;28;20218;-72
2021/04/27 05:57:34;;;;;;;6.43;1.67;;;15.00;54.60;;;;;;5092326;28;20194;-71
2021/04/27 06:00:02;;;;;;;7.43;2.85;;;15.10;53.60;;;;;;5083641;28;20194;-70
2021/04/27 06:02:29;;;;;;;4.18;1.95;;;15.30;53.10;;;;;;5083067;28;20206;-72
2021/04/27 06:04:56;;;;;;;7.55;2.88;;;15.10;52.70;;;;;;5099015;28;20224;-70
2021/04/27 06:07:23;;;;;;;3.00;1.70;;;15.00;53.00;;;;;;5086356;28;20675;-70
2021/04/27 06:09:49;;;;;;;4.63;2.03;;;15.20;52.60;;;;;;5091850;28;20286;-69
2021/04/27 06:12:16;;;;;;;5.50;2.30;;;15.10;52.10;;;;;;5082423;28;20194;-69
2021/04/27 06:14:43;;;;;;;6.65;2.95;;;15.30;51.80;;;;;;5093593;28;20221;-70
2021/04/27 06:17:14;;;;;;;3.00;2.30;;;15.20;51.50;;;;;;5095795;28;20202;-71
2021/04/27 06:19:40;;;;;;;8.02;2.60;;;15.50;51.20;;;;;;5091463;28;20624;-71
2021/04/27 06:22:07;;;;;;;2.13;1.83;;;15.50;50.90;;;;;;5095391;28;20314;-71
2021/04/27 06:24:34;;;;;;;6.03;2.42;;;15.60;50.50;;;;;;5101090;28;20213;-69
2021/04/27 06:27:03;;;;;;;2.40;1.88;;;16.60;50.30;;;;;;5107599;28;20224;-71
2021/04/27 06:29:29;;;;;;;3.03;1.85;;;16.90;48.90;;;;;;5094507;28;20203;-71
2021/04/27 06:32:16;;;;;;;7.77;3.10;;;17.70;47.30;;;;;;5101184;28;20215;-72
2021/04/27 06:34:42;;;;;;;6.10;2.60;;;17.70;46.60;;;;;;5089082;28;20511;-73
2021/04/27 06:37:09;;;;;;;4.40;2.00;;;17.80;46.30;;;;;;5098278;28;20451;-73
2021/04/27 06:39:37;;;;;;;4.53;2.80;;;18.30;46.60;;;;;;5091838;28;20480;-72
2021/04/27 06:42:05;;;;;;;3.57;2.37;;;17.60;45.10;;;;;;5088983;28;20456;-72
2021/04/27 06:44:31;;;;;;;5.00;2.00;;;17.90;45.90;;;;;;5103306;28;20511;-72
2021/04/27 06:46:58;;;;;;;3.90;2.80;;;18.60;45.20;;;;;;5091270;28;20490;-73
2021/04/27 06:49:28;;;;;;;4.37;2.47;;;19.20;44.40;;;;;;5100164;28;20462;-72
2021/04/27 06:51:55;;;;;;;4.27;2.33;;;19.70;43.00;;;;;;5109502;28;20859;-72
2021/04/27 06:54:21;;;;;;;5.27;2.83;;;19.60;42.50;;;;;;5098943;28;20487;-71
2021/04/27 06:56:48;;;;;;;2.67;1.90;;;19.60;41.80;;;;;;5098317;28;20477;-72
2021/04/27 06:59:16;;;;;;;5.03;3.17;;;19.20;41.90;;;;;;5093185;28;21186;-71
2021/04/27 07:01:43;;;;;;;6.73;2.40;;;19.50;42.40;;;;;;5101165;28;20478;-72
2021/04/27 07:04:10;;;;;;;2.40;2.03;;;19.30;42.40;;;;;;5102032;28;20476;-72
2021/04/27 07:06:37;;;;;;;2.30;1.73;;;19.70;42.30;;;;;;5096526;28;20446;-72
2021/04/27 07:09:04;;;;;;;3.50;1.97;;;19.80;41.10;;;;;;5085961;28;20914;-70
2021/04/27 07:11:31;;;;;;;6.60;2.47;;;19.60;41.60;;;;;;5090193;28;20887;-73
2021/04/27 07:13:59;;;;;;;4.40;2.20;;;20.00;41.20;;;;;;5089924;28;20543;-72
2021/04/27 07:16:27;;;;;;;5.27;2.57;;;19.40;41.40;;;;;;5095031;28;20448;-74
2021/04/27 07:18:53;;;;;;;2.80;2.10;;;19.10;41.30;;;;;;5099968;28;20432;-74
2021/04/27 07:21:22;;;;;;;4.20;1.87;;;18.80;41.30;;;;;;5092033;28;20462;-73
2021/04/27 07:23:50;;;;;;;3.70;1.90;;;19.10;41.40;;;;;;5091526;28;20615;-71
2021/04/27 07:26:17;;;;;;;3.30;1.90;;;19.60;41.70;;;;;;5085806;28;20549;-73
2021/04/27 07:28:43;;;;;;;4.87;2.27;;;19.90;41.10;;;;;;5090788;28;20976;-72
2021/04/27 07:31:10;;;;;;;11.83;2.77;;;20.00;41.10;;;;;;5094171;28;20463;-72
2021/04/27 07:33:37;;;;;;;5.27;2.10;;;20.10;39.80;;;;;;5099635;28;21033;-72
2021/04/27 07:36:04;;;;;;;3.33;1.73;;;19.90;40.30;;;;;;5106897;28;20454;-73
2021/04/27 07:38:31;;;;;;;3.63;2.50;;;20.20;39.80;;;;;;5098063;28;20441;-72
2021/04/27 07:40:59;;;;;;;4.27;2.60;;;20.30;39.50;;;;;;5087018;28;20557;-73
2021/04/27 07:43:27;;;;;;;3.93;2.00;;;20.20;39.80;;;;;;5093468;28;20746;-72
2021/04/27 07:45:54;;;;;;;7.23;1.93;;;20.40;40.00;;;;;;5094866;28;20892;-73
2021/04/27 07:48:21;;;;;;;4.90;2.47;;;20.70;39.50;;;;;;5087355;28;20438;-73
2021/04/27 07:50:49;;;;;;;3.63;1.67;;;20.70;39.90;;;;;;5085230;28;20472;-73
2021/04/27 07:53:15;;;;;;;4.30;2.03;;;20.60;39.20;;;;;;5095713;28;20487;-72
2021/04/27 07:55:43;;;;;;;6.47;2.20;;;19.90;39.30;;;;;;5098219;28;20540;-74
2021/04/27 07:58:11;;;;;;;3.77;2.63;;;20.90;40.00;;;;;;5093262;28;20573;-71
2021/04/27 08:00:38;;;;;;;8.67;2.77;;;21.20;39.50;;;;;;5092006;28;20510;-72
2021/04/27 08:03:05;;;;;;;4.23;2.37;;;21.30;39.00;;;;;;5095190;28;20435;-73
2021/04/27 08:05:32;;;;;;;4.83;2.03;;;21.60;38.40;;;;;;5085353;28;20810;-79
2021/04/27 08:07:59;;;;;;;13.37;3.30;;;22.20;38.10;;;;;;5092655;28;20961;-78
2021/04/27 08:10:26;;;;;;;8.07;2.20;;;22.60;36.80;;;;;;5102554;28;20436;-73
2021/04/27 08:12:54;;;;;;;3.77;1.87;;;22.80;35.90;;;;;;5087295;28;20472;-73
2021/04/27 08:15:23;;;;;;;3.30;2.23;;;22.90;35.50;;;;;;5094902;28;20465;-72
2021/04/27 08:17:54;;;;;;;6.87;2.47;;;22.60;35.80;;;;;;5105359;28;20452;-72
2021/04/27 08:20:21;;;;;;;2.73;1.73;;;22.60;35.50;;;;;;5095705;28;20766;-73
2021/04/27 08:22:48;;;;;;;4.60;2.20;;;22.60;35.00;;;;;;5101515;28;20473;-74
2021/04/27 08:25:18;;;;;;;4.30;1.73;;;22.30;34.80;;;;;;5098531;28;20781;-71
2021/04/27 08:27:45;;;;;;;4.23;1.97;;;22.40;33.90;;;;;;5088385;28;20506;-73
2021/04/27 08:30:13;;;;;;;2.90;1.53;;;22.40;34.40;;;;;;5099046;28;20919;-72
2021/04/27 08:32:41;;;;;;;6.40;2.07;;;22.20;34.30;;;;;;5088900;28;20903;-73
2021/04/27 08:35:10;;;;;;;2.70;1.93;;;21.90;34.40;;;;;;5086649;28;20464;-72
2021/04/27 08:37:37;;;;;;;4.93;1.93;;;21.60;34.10;;;;;;5095997;28;20922;-72
2021/04/27 08:40:08;;;;;;;6.13;1.70;;;21.60;33.30;;;;;;5095126;28;20930;-71
2021/04/27 08:42:35;;;;;;;5.77;1.90;;;21.60;34.20;;;;;;5092289;28;20464;-70
2021/04/27 08:45:33;;;;;;;3.67;1.95;;;22.30;33.50;;;;;;5088668;28;20519;-72
2021/04/27 08:48:03;;;;;;;2.80;1.80;;;23.00;32.40;;;;;;5054915;28;20271;-72
2021/04/27 08:50:30;;;;;;;2.20;1.60;;;22.50;32.30;;;;;;5092701;28;20447;-71
2021/04/27 08:52:57;;;;;;;3.93;1.70;;;21.30;33.50;;;;;;5090629;28;20487;-72
2021/04/27 08:55:24;;;;;;;2.97;1.43;;;21.50;33.70;;;;;;5097788;28;20466;-71
2021/04/27 08:57:52;;;;;;;3.23;1.87;;;21.40;33.00;;;;;;5086550;28;20468;-73
2021/04/27 09:00:20;;;;;;;4.83;2.07;;;21.20;32.70;;;;;;5093797;28;20448;-73
2021/04/27 09:02:54;;;;;;;3.03;1.73;;;20.90;33.20;;;;;;5095680;28;20539;-72
2021/04/27 09:05:25;;;;;;;3.90;2.40;;;21.30;33.70;;;;;;5092659;28;20444;-72
2021/04/27 09:07:56;;;;;;;3.23;1.77;;;21.70;33.40;;;;;;5093033;28;20491;-73
2021/04/27 09:10:25;;;;;;;4.20;1.80;;;22.50;30.80;;;;;;5096062;28;20443;-73
2021/04/27 09:12:55;;;;;;;2.53;1.70;;;22.10;30.20;;;;;;5104173;28;20449;-73
2021/04/27 09:15:34;;;;;;;2.07;1.40;;;22.00;30.40;;;;;;5101146;28;20437;-73
2021/04/27 09:18:21;;;;;;;1.80;1.50;;;21.70;30.90;;;;;;5074234;28;20457;-73
2021/04/27 09:20:56;;;;;;;6.43;1.73;;;21.50;31.20;;;;;;5080079;28;20531;-73
2021/04/27 09:23:26;;;;;;;2.47;1.73;;;21.40;31.30;;;;;;5086721;28;20458;-74
2021/04/27 09:26:15;;;;;;;4.17;1.53;;;20.90;32.00;;;;;;5105505;28;20991;-73
2021/04/27 09:28:44;;;;;;;8.07;2.07;;;20.80;31.10;;;;;;5086555;28;20449;-73
2021/04/27 09:31:25;;;;;;;2.77;1.43;;;21.10;31.50;;;;;;5097707;28;20448;-74
2021/04/27 09:33:53;;;;;;;3.63;1.43;;;21.20;30.80;;;;;;5094715;28;20488;-74
2021/04/27 09:36:22;;;;;;;2.27;1.50;;;20.40;30.10;;;;;;5089594;28;20455;-75
2021/04/27 09:38:52;;;;;;;4.20;1.97;;;19.80;30.70;;;;;;5098343;28;20476;-74
2021/04/27 09:41:25;;;;;;;5.30;1.50;;;19.00;31.70;;;;;;5095078;28;20464;-75
2021/04/27 09:43:53;;;;;;;4.37;1.70;;;19.00;33.40;;;;;;5078129;28;20964;-73
2021/04/27 09:46:23;;;;;;;5.60;1.80;;;18.50;34.10;;;;;;5086168;28;20431;-74
2021/04/27 09:48:51;;;;;;;3.60;1.77;;;18.70;34.80;;;;;;5093773;28;20541;-74
2021/04/27 09:51:23;;;;;;;5.97;1.87;;;19.00;35.00;;;;;;5090872;28;20445;-75
2021/04/27 09:53:54;;;;;;;3.30;1.57;;;18.30;33.70;;;;;;5089371;28;20944;-73
2021/04/27 09:56:42;;;;;;;1.63;1.20;;;18.40;33.90;;;;;;5087842;28;20444;-73
2021/04/27 09:59:11;;;;;;;2.40;1.43;;;18.50;34.10;;;;;;5088062;28;20441;-73
2021/04/27 10:01:39;;;;;;;2.43;1.63;;;18.50;34.00;;;;;;5103916;28;20454;-73
2021/04/27 10:04:06;;;;;;;10.80;2.07;;;18.40;33.90;;;;;;5090923;28;20536;-73
2021/04/27 10:06:35;;;;;;;2.40;1.40;;;18.70;33.20;;;;;;5095506;28;20447;-73
2021/04/27 10:09:04;;;;;;;4.10;1.83;;;18.60;32.40;;;;;;5094143;28;20453;-74
2021/04/27 10:11:30;;;;;;;8.30;2.50;;;18.60;33.00;;;;;;5096685;28;20450;-73
2021/04/27 10:13:57;;;;;;;3.70;2.10;;;18.60;34.40;;;;;;5091624;28;20514;-74
2021/04/27 10:16:24;;;;;;;5.20;2.43;;;19.10;34.00;;;;;;5086636;28;20957;-75
2021/04/27 10:18:54;;;;;;;2.07;1.63;;;19.50;33.40;;;;;;5081386;28;20445;-74
2021/04/27 10:21:21;;;;;;;5.20;1.83;;;19.00;33.40;;;;;;5086417;28;20448;-74
2021/04/27 10:23:51;;;;;;;5.03;2.10;;;18.90;33.70;;;;;;5094431;28;20471;-74
2021/04/27 10:26:21;;;;;;;4.63;3.47;;;18.90;33.70;;;;;;5099319;28;20920;-72
2021/04/27 10:29:08;;;;;;;2.43;1.90;;;18.10;33.10;;;;;;5100084;28;20543;-73
2021/04/27 10:31:37;;;;;;;4.67;1.90;;;17.70;33.60;;;;;;5093620;28;20453;-73
2021/04/27 10:34:09;;;;;;;4.90;2.17;;;17.20;33.90;;;;;;5099895;28;20511;-73
2021/04/27 10:36:39;;;;;;;5.45;3.00;;;17.10;34.50;;;;;;5107543;28;20214;-74
2021/04/27 10:39:09;;;;;;;4.72;2.75;;;16.90;35.60;;;;;;5085218;28;20202;-74
2021/04/27 10:41:50;;;;;;;2.50;1.70;;;16.30;36.70;;;;;;5100995;28;20198;-74
2021/04/27 10:44:17;;;;;;;16.15;2.58;;;16.20;36.60;;;;;;5094481;28;20301;-74
2021/04/27 10:46:46;;;;;;;4.05;2.22;;;15.90;36.90;;;;;;5095606;28;20293;-74
2021/04/27 10:49:20;;;;;;;5.00;2.58;;;15.60;37.80;;;;;;5111179;28;20399;-73
2021/04/27 10:51:48;;;;;;;3.25;2.55;;;15.20;37.90;;;;;;5090885;28;20209;-73
2021/04/27 10:54:22;;;;;;;8.15;2.50;;;15.00;38.20;;;;;;5093307;28;20229;-73
2021/04/27 10:56:52;;;;;;;2.50;2.30;;;15.00;38.40;;;;;;5099755;28;20295;-74
2021/04/27 10:59:20;;;;;;;4.35;2.90;;;15.00;39.00;;;;;;5106612;28;20206;-73
2021/04/27 11:01:48;;;;;;;3.05;2.70;;;15.00;38.90;;;;;;5099832;28;20206;-74
2021/04/27 11:04:30;;;;;;;8.38;2.05;;;15.00;39.50;;;;;;5080550;28;20265;-73
2021/04/27 11:07:32;;;;;;;4.30;2.40;;;15.20;40.00;;;;;;5103685;28;20201;-74
2021/04/27 11:10:26;;;;;;;6.43;2.65;;;14.70;39.20;;;;;;5091873;28;20210;-74
2021/04/27 11:13:12;;;;;;;2.63;2.08;;;14.70;38.90;;;;;;5063684;28;20283;-74
2021/04/27 11:15:40;;;;;;;6.30;3.28;;;15.00;39.50;;;;;;5092346;28;20659;-73
2021/04/27 11:18:09;;;;;;;3.75;2.00;;;14.80;38.30;;;;;;5093077;28;20603;-74
2021/04/27 11:20:57;;;;;;;5.05;2.90;;;14.70;38.80;;;;;;5108117;28;20197;-74
2021/04/27 11:23:47;;;;;;;3.33;2.70;;;14.70;38.90;;;;;;5093387;28;20696;-74
2021/04/27 11:26:43;;;;;;;3.75;2.75;;;14.80;39.50;;;;;;5085942;28;20209;-73
2021/04/27 11:29:35;;;;;;;4.50;2.40;;;14.60;39.70;;;;;;5098692;28;20277;-73
2021/04/27 11:32:10;;;;;;;4.75;3.13;;;14.40;39.70;;;;;;5089872;28;20199;-74
2021/04/27 11:35:01;;;;;;;1.83;1.60;;;14.60;40.10;;;;;;5085175;28;20568;-74
2021/04/27 11:37:31;;;;;;;3.35;2.17;;;14.60;39.40;;;;;;5092569;28;20271;-73
2021/04/27 11:40:17;;;;;;;3.67;2.47;;;14.40;39.10;;;;;;5093276;28;20201;-75
2021/04/27 11:42:50;;;;;;;4.22;2.83;;;14.30;39.80;;;;;;5097042;28;20284;-75
2021/04/27 11:45:18;;;;;;;6.00;2.33;;;14.30;40.10;;;;;;5094063;28;20224;-73
2021/04/27 11:47:47;;;;;;;4.05;2.25;;;14.50;40.10;;;;;;5101989;28;20205;-73
2021/04/27 11:50:16;;;;;;;5.63;2.53;;;14.30;39.40;;;;;;5093465;28;20201;-72
2021/04/27 11:53:03;;;;;;;6.15;2.65;;;14.20;39.70;;;;;;5101142;28;20212;-74
2021/04/27 11:55:34;;;;;;;5.68;2.58;;;14.30;39.70;;;;;;5104249;28;20543;-74
2021/04/27 11:58:06;;;;;;;9.48;2.90;;;14.20;39.80;;;;;;5096428;28;20198;-74
2021/04/27 12:00:40;;;;;;;4.03;2.47;;;14.30;40.40;;;;;;5090079;28;20198;-75
2021/04/27 12:03:25;;;;;;;2.45;2.05;;;14.40;40.50;;;;;;5092276;28;20207;-74
2021/04/27 12:05:54;;;;;;;3.67;2.75;;;14.20;39.40;;;;;;5096347;28;20264;-73
2021/04/27 12:08:24;;;;;;;5.05;2.50;;;14.30;39.20;;;;;;5090044;28;20210;-75
2021/04/27 12:11:16;;;;;;;3.25;2.13;;;14.20;39.20;;;;;;5093482;28;20218;-74
2021/04/27 12:13:46;;;;;;;7.28;2.45;;;14.10;40.10;;;;;;5091813;28;20244;-74
2021/04/27 12:16:16;;;;;;;7.00;2.30;;;14.30;40.00;;;;;;5096903;28;20210;-73
2021/04/27 12:19:01;;;;;;;5.13;2.60;;;14.40;40.10;;;;;;5094495;28;20210;-72
2021/04/27 12:21:48;;;;;;;9.63;3.00;;;14.10;40.00;;;;;;5088438;28;20198;-73
2021/04/27 12:24:18;;;;;;;4.90;3.00;;;14.10;39.70;;;;;;5098280;28;20213;-74
2021/04/27 12:26:58;;;;;;;6.65;2.75;;;14.00;40.30;;;;;;5096286;28;20206;-73
2021/04/27 12:29:31;;;;;;;4.90;3.17;;;14.10;40.30;;;;;;5091290;28;20221;-72
2021/04/27 12:32:05;;;;;;;4.30;2.30;;;14.30;40.40;;;;;;5093011;28;20639;-73
2021/04/27 12:34:32;;;;;;;4.47;2.95;;;14.20;39.80;;;;;;5093740;28;20313;-73
2021/04/27 12:36:59;;;;;;;5.95;2.67;;;14.20;40.00;;;;;;5091257;28;20222;-72
2021/04/27 12:39:29;;;;;;;5.22;2.60;;;14.20;39.60;;;;;;5091652;28;20205;-73
2021/04/27 12:41:58;;;;;;;7.85;2.95;;;14.20;39.20;;;;;;5097219;28;20614;-74
2021/04/27 12:44:35;;;;;;;3.38;2.92;;;14.20;39.40;;;;;;5087190;28;20303;-73
2021/04/27 12:47:16;;;;;;;6.80;2.35;;;14.30;39.50;;;;;;5092292;28;20198;-73
2021/04/27 12:49:43;;;;;;;5.32;2.83;;;14.40;39.70;;;;;;5087725;28;20564;-73
2021/04/27 12:52:13;;;;;;;2.75;2.35;;;14.20;39.00;;;;;;5090409;28;20194;-74
2021/04/27 12:54:41;;;;;;;3.67;3.25;;;14.10;39.20;;;;;;5085940;28;20223;-73
2021/04/27 12:57:14;;;;;;;8.38;3.20;;;14.10;39.80;;;;;;5096899;28;20737;-73
2021/04/27 12:59:44;;;;;;;3.83;2.83;;;14.20;40.00;;;;;;5095935;28;20211;-74
2021/04/27 13:02:15;;;;;;;3.45;2.53;;;14.20;39.80;;;;;;5095823;28;20205;-74
2021/04/27 13:04:44;;;;;;;6.90;2.72;;;14.30;39.70;;;;;;5098865;28;20304;-73